sensor_id;sensor_type;location;lat;lon;timestamp;pressure;altitude;pressure_sealevel;temperature;humidity
31717;BME280;18301;51.076;17.046;2022-09-30T00:00:26;99435.50;;;8.78;85.02
31717;BME280;18301;51.076;17.046;2022-09-30T00:05:28;99435.75;;;8.75;84.84
31717;BME280;18301;51.076;17.046;2022-09-30T00:10:30;99446.00;;;8.70;85.21
31717;BME280;18301;51.076;17.046;2022-09-30T00:15:31;99447.25;;;8.66;85.02
31717;BME280;18301;51.076;17.046;2022-09-30T00:20:33;99448.34;;;8.63;85.09
31717;BME280;18301;51.076;17.046;2022-09-30T00:25:35;99458.50;;;8.60;85.87
31717;BME280;18301;51.076;17.046;2022-09-30T00:30:37;99463.88;;;8.60;85.27
31717;BME280;18301;51.076;17.046;2022-09-30T00:35:38;99468.75;;;8.66;85.99
31717;BME280;18301;51.076;17.046;2022-09-30T00:40:40;99476.44;;;8.70;86.00
31717;BME280;18301;51.076;17.046;2022-09-30T00:45:51;99464.69;;;8.83;86.21
31717;BME280;18301;51.076;17.046;2022-09-30T00:50:55;99474.59;;;8.93;86.60
31717;BME280;18301;51.076;17.046;2022-09-30T01:01:13;99486.19;;;9.05;86.79
31717;BME280;18301;51.076;17.046;2022-09-30T01:06:19;99492.16;;;9.09;86.85
31717;BME280;18301;51.076;17.046;2022-09-30T01:11:22;99483.59;;;9.15;87.00
31717;BME280;18301;51.076;17.046;2022-09-30T01:22:08;99482.94;;;9.22;87.43
31717;BME280;18301;51.076;17.046;2022-09-30T01:27:46;99475.94;;;9.31;87.12
31717;BME280;18301;51.076;17.046;2022-09-30T01:38:49;99474.84;;;9.34;87.02
31717;BME280;18301;51.076;17.046;2022-09-30T01:44:15;99480.09;;;9.35;87.49
31717;BME280;18301;51.076;17.046;2022-09-30T01:49:29;99471.66;;;9.29;86.78
31717;BME280;18301;51.076;17.046;2022-09-30T01:54:42;99480.34;;;9.32;87.24
31717;BME280;18301;51.076;17.046;2022-09-30T02:00:12;99470.56;;;9.31;86.88
31717;BME280;18301;51.076;17.046;2022-09-30T02:10:37;99474.00;;;9.22;87.42
31717;BME280;18301;51.076;17.046;2022-09-30T02:15:48;99476.47;;;9.25;87.58
31717;BME280;18301;51.076;17.046;2022-09-30T02:20:57;99472.44;;;9.19;87.52
31717;BME280;18301;51.076;17.046;2022-09-30T02:26:05;99475.69;;;9.34;87.55
31717;BME280;18301;51.076;17.046;2022-09-30T02:31:08;99471.31;;;9.22;87.63
31717;BME280;18301;51.076;17.046;2022-09-30T02:36:57;99479.91;;;9.16;88.05
31717;BME280;18301;51.076;17.046;2022-09-30T02:42:00;99470.38;;;9.12;88.38
31717;BME280;18301;51.076;17.046;2022-09-30T02:47:09;99476.97;;;9.19;88.84
31717;BME280;18301;51.076;17.046;2022-09-30T02:52:22;99471.31;;;9.22;88.61
31717;BME280;18301;51.076;17.046;2022-09-30T03:02:40;99494.81;;;9.20;89.37
31717;BME280;18301;51.076;17.046;2022-09-30T03:07:42;99499.69;;;9.26;88.87
31717;BME280;18301;51.076;17.046;2022-09-30T03:18:21;99502.63;;;9.23;89.67
31717;BME280;18301;51.076;17.046;2022-09-30T03:23:40;99512.19;;;9.27;89.55
31717;BME280;18301;51.076;17.046;2022-09-30T03:28:55;99514.63;;;9.30;89.92
31717;BME280;18301;51.076;17.046;2022-09-30T03:34:29;99520.25;;;9.27;89.73
31717;BME280;18301;51.076;17.046;2022-09-30T03:40:09;99519.78;;;9.22;90.08
31717;BME280;18301;51.076;17.046;2022-09-30T03:45:20;99527.38;;;9.17;89.67
31717;BME280;18301;51.076;17.046;2022-09-30T03:50:27;99529.34;;;9.15;89.87
31717;BME280;18301;51.076;17.046;2022-09-30T03:55:29;99526.06;;;9.11;89.90
31717;BME280;18301;51.076;17.046;2022-09-30T04:00:33;99536.44;;;9.16;90.28
31717;BME280;18301;51.076;17.046;2022-09-30T04:05:35;99528.09;;;9.19;90.02
31717;BME280;18301;51.076;17.046;2022-09-30T04:10:40;99533.75;;;9.16;90.37
31717;BME280;18301;51.076;17.046;2022-09-30T04:15:42;99527.38;;;9.17;90.46
31717;BME280;18301;51.076;17.046;2022-09-30T04:20:44;99520.03;;;9.19;90.28
31717;BME280;18301;51.076;17.046;2022-09-30T04:25:51;99524.66;;;9.17;90.29
31717;BME280;18301;51.076;17.046;2022-09-30T04:30:53;99527.63;;;9.14;90.45
31717;BME280;18301;51.076;17.046;2022-09-30T04:35:56;99532.75;;;9.17;90.64
31717;BME280;18301;51.076;17.046;2022-09-30T04:41:01;99527.13;;;9.20;90.86
31717;BME280;18301;51.076;17.046;2022-09-30T04:46:04;99538.88;;;9.19;90.82
31717;BME280;18301;51.076;17.046;2022-09-30T04:51:06;99548.41;;;9.23;91.14
31717;BME280;18301;51.076;17.046;2022-09-30T04:56:08;99551.44;;;9.30;91.40
31717;BME280;18301;51.076;17.046;2022-09-30T05:01:12;99548.50;;;9.33;91.23
31717;BME280;18301;51.076;17.046;2022-09-30T05:06:15;99566.47;;;9.43;91.20
31717;BME280;18301;51.076;17.046;2022-09-30T05:11:18;99582.63;;;9.43;91.13
31717;BME280;18301;51.076;17.046;2022-09-30T05:16:20;99596.34;;;9.29;91.69
31717;BME280;18301;51.076;17.046;2022-09-30T05:21:22;99604.31;;;9.31;92.23
31717;BME280;18301;51.076;17.046;2022-09-30T05:26:23;99601.97;;;9.37;92.38
31717;BME280;18301;51.076;17.046;2022-09-30T05:31:25;99612.25;;;9.43;92.02
31717;BME280;18301;51.076;17.046;2022-09-30T05:36:27;99623.22;;;9.63;92.13
31717;BME280;18301;51.076;17.046;2022-09-30T05:41:29;99624.06;;;9.75;91.77
31717;BME280;18301;51.076;17.046;2022-09-30T05:46:31;99622.19;;;9.86;91.72
31717;BME280;18301;51.076;17.046;2022-09-30T05:51:32;99620.41;;;9.97;91.10
31717;BME280;18301;51.076;17.046;2022-09-30T05:56:34;99615.50;;;10.02;90.30
31717;BME280;18301;51.076;17.046;2022-09-30T06:01:36;99622.09;;;10.09;89.96
31717;BME280;18301;51.076;17.046;2022-09-30T06:06:37;99628.94;;;10.13;90.13
31717;BME280;18301;51.076;17.046;2022-09-30T06:11:39;99635.53;;;10.20;90.05
31717;BME280;18301;51.076;17.046;2022-09-30T06:16:42;99655.72;;;10.26;90.39
31717;BME280;18301;51.076;17.046;2022-09-30T06:21:44;99649.50;;;10.25;90.06
31717;BME280;18301;51.076;17.046;2022-09-30T06:26:46;99660.91;;;10.29;90.02
31717;BME280;18301;51.076;17.046;2022-09-30T06:31:47;99666.63;;;10.35;90.01
31717;BME280;18301;51.076;17.046;2022-09-30T06:36:49;99666.09;;;10.42;89.48
31717;BME280;18301;51.076;17.046;2022-09-30T06:41:50;99681.19;;;10.44;89.91
31717;BME280;18301;51.076;17.046;2022-09-30T06:46:52;99679.78;;;10.50;89.09
31717;BME280;18301;51.076;17.046;2022-09-30T06:51:55;99684.56;;;10.46;89.68
31717;BME280;18301;51.076;17.046;2022-09-30T06:56:56;99690.56;;;10.50;89.39
31717;BME280;18301;51.076;17.046;2022-09-30T07:01:58;99682.84;;;10.56;88.59
31717;BME280;18301;51.076;17.046;2022-09-30T07:07:00;99686.63;;;10.54;88.98
31717;BME280;18301;51.076;17.046;2022-09-30T07:12:01;99691.28;;;10.52;88.94
31717;BME280;18301;51.076;17.046;2022-09-30T07:17:05;99694.59;;;10.55;88.46
31717;BME280;18301;51.076;17.046;2022-09-30T07:22:06;99696.91;;;10.60;88.99
31717;BME280;18301;51.076;17.046;2022-09-30T07:27:28;99697.31;;;10.76;88.91
31717;BME280;18301;51.076;17.046;2022-09-30T07:32:29;99715.06;;;10.79;89.17
31717;BME280;18301;51.076;17.046;2022-09-30T07:37:32;99726.59;;;10.81;88.93
31717;BME280;18301;51.076;17.046;2022-09-30T07:42:38;99733.28;;;10.87;88.89
31717;BME280;18301;51.076;17.046;2022-09-30T07:47:45;99742.59;;;10.94;88.80
31717;BME280;18301;51.076;17.046;2022-09-30T07:52:53;99741.53;;;11.06;88.33
31717;BME280;18301;51.076;17.046;2022-09-30T07:57:56;99734.22;;;11.18;88.72
31717;BME280;18301;51.076;17.046;2022-09-30T08:02:57;99750.22;;;11.31;88.22
31717;BME280;18301;51.076;17.046;2022-09-30T08:07:59;99749.69;;;11.37;88.07
31717;BME280;18301;51.076;17.046;2022-09-30T08:13:01;99750.88;;;11.53;88.05
31717;BME280;18301;51.076;17.046;2022-09-30T08:18:06;99751.19;;;11.60;87.22
31717;BME280;18301;51.076;17.046;2022-09-30T08:23:08;99760.31;;;11.59;87.75
31717;BME280;18301;51.076;17.046;2022-09-30T08:28:10;99758.09;;;11.74;87.56
31717;BME280;18301;51.076;17.046;2022-09-30T08:33:12;99759.84;;;11.85;86.75
31717;BME280;18301;51.076;17.046;2022-09-30T08:38:14;99755.53;;;11.82;86.84
31717;BME280;18301;51.076;17.046;2022-09-30T08:53:47;99770.19;;;12.10;84.98
31717;BME280;18301;51.076;17.046;2022-09-30T08:58:54;99774.44;;;12.03;85.63
31717;BME280;18301;51.076;17.046;2022-09-30T09:03:59;99784.03;;;12.27;85.72
31717;BME280;18301;51.076;17.046;2022-09-30T09:09:16;99799.91;;;12.60;84.44
31717;BME280;18301;51.076;17.046;2022-09-30T09:14:37;99794.06;;;12.65;84.70
31717;BME280;18301;51.076;17.046;2022-09-30T09:20:02;99800.47;;;13.03;83.96
31717;BME280;18301;51.076;17.046;2022-09-30T09:25:12;99802.16;;;13.33;83.75
31717;BME280;18301;51.076;17.046;2022-09-30T09:30:15;99793.63;;;13.38;82.34
31717;BME280;18301;51.076;17.046;2022-09-30T09:46:11;99804.00;;;13.52;82.79
31717;BME280;18301;51.076;17.046;2022-09-30T09:51:27;99804.69;;;13.54;81.91
31717;BME280;18301;51.076;17.046;2022-09-30T09:56:31;99799.75;;;13.40;81.77
31717;BME280;18301;51.076;17.046;2022-09-30T10:01:36;99814.84;;;13.42;82.17
31717;BME280;18301;51.076;17.046;2022-09-30T10:11:47;99809.22;;;13.63;80.71
31717;BME280;18301;51.076;17.046;2022-09-30T10:16:49;99813.81;;;13.63;82.30
31717;BME280;18301;51.076;17.046;2022-09-30T10:27:31;99804.31;;;13.86;82.03
31717;BME280;18301;51.076;17.046;2022-09-30T10:32:33;99803.06;;;14.08;82.24
31717;BME280;18301;51.076;17.046;2022-09-30T10:37:36;99808.00;;;14.40;80.22
31717;BME280;18301;51.076;17.046;2022-09-30T10:42:40;99808.41;;;14.73;77.96
31717;BME280;18301;51.076;17.046;2022-09-30T10:47:49;99806.16;;;14.86;75.68
31717;BME280;18301;51.076;17.046;2022-09-30T10:52:56;99812.81;;;14.92;75.06
31717;BME280;18301;51.076;17.046;2022-09-30T10:58:28;99811.81;;;15.11;76.08
31717;BME280;18301;51.076;17.046;2022-09-30T11:04:12;99800.63;;;15.14;75.98
31717;BME280;18301;51.076;17.046;2022-09-30T11:09:13;99808.00;;;15.48;72.12
31717;BME280;18301;51.076;17.046;2022-09-30T11:14:28;99795.00;;;15.59;73.24
31717;BME280;18301;51.076;17.046;2022-09-30T11:24:53;99796.50;;;15.54;72.31
31717;BME280;18301;51.076;17.046;2022-09-30T11:30:17;99801.75;;;15.73;72.31
31717;BME280;18301;51.076;17.046;2022-09-30T11:35:45;99805.50;;;15.72;69.54
31717;BME280;18301;51.076;17.046;2022-09-30T11:57:18;99810.81;;;15.82;70.11
31717;BME280;18301;51.076;17.046;2022-09-30T12:12:47;99804.16;;;16.10;67.17
31717;BME280;18301;51.076;17.046;2022-09-30T12:17:56;99822.91;;;16.22;65.26
31717;BME280;18301;51.076;17.046;2022-09-30T12:23:19;99832.69;;;15.98;66.58
31717;BME280;18301;51.076;17.046;2022-09-30T12:28:51;99829.72;;;15.83;65.66
31717;BME280;18301;51.076;17.046;2022-09-30T12:39:35;99849.63;;;15.66;66.09
31717;BME280;18301;51.076;17.046;2022-09-30T12:50:19;99840.94;;;15.88;66.50
31717;BME280;18301;51.076;17.046;2022-09-30T12:55:38;99832.44;;;15.92;66.94
31717;BME280;18301;51.076;17.046;2022-09-30T13:00:58;99817.22;;;15.99;66.06
31717;BME280;18301;51.076;17.046;2022-09-30T13:06:01;99828.53;;;16.28;65.11
31717;BME280;18301;51.076;17.046;2022-09-30T13:11:27;99819.38;;;16.29;65.00
31717;BME280;18301;51.076;17.046;2022-09-30T13:17:01;99837.41;;;16.30;64.12
31717;BME280;18301;51.076;17.046;2022-09-30T13:32:36;99824.34;;;16.00;63.58
31717;BME280;18301;51.076;17.046;2022-09-30T13:37:38;99821.47;;;16.01;64.66
31717;BME280;18301;51.076;17.046;2022-09-30T13:42:45;99814.81;;;15.96;64.89
31717;BME280;18301;51.076;17.046;2022-09-30T13:48:20;99806.31;;;15.99;65.08
31717;BME280;18301;51.076;17.046;2022-09-30T13:53:31;99833.47;;;15.91;64.26
31717;BME280;18301;51.076;17.046;2022-09-30T13:58:43;99832.13;;;15.95;64.58
31717;BME280;18301;51.076;17.046;2022-09-30T14:14:53;99819.94;;;16.07;64.69
31717;BME280;18301;51.076;17.046;2022-09-30T14:25:17;99824.09;;;16.19;63.54
31717;BME280;18301;51.076;17.046;2022-09-30T14:30:21;99830.84;;;16.07;63.38
31717;BME280;18301;51.076;17.046;2022-09-30T14:35:26;99832.44;;;16.18;63.03
31717;BME280;18301;51.076;17.046;2022-09-30T14:40:32;99841.50;;;16.34;61.93
31717;BME280;18301;51.076;17.046;2022-09-30T14:45:36;99837.78;;;16.44;60.19
31717;BME280;18301;51.076;17.046;2022-09-30T14:51:06;99829.84;;;16.16;62.06
31717;BME280;18301;51.076;17.046;2022-09-30T15:01:32;99854.53;;;15.88;63.24
31717;BME280;18301;51.076;17.046;2022-09-30T15:06:37;99856.53;;;15.78;63.88
31717;BME280;18301;51.076;17.046;2022-09-30T15:11:39;99862.25;;;15.67;64.62
31717;BME280;18301;51.076;17.046;2022-09-30T15:16:59;99845.97;;;15.57;65.18
31717;BME280;18301;51.076;17.046;2022-09-30T15:22:08;99842.22;;;15.32;65.83
31717;BME280;18301;51.076;17.046;2022-09-30T15:27:32;99850.09;;;15.00;66.73
31717;BME280;18301;51.076;17.046;2022-09-30T15:32:35;99864.00;;;14.96;67.07
31717;BME280;18301;51.076;17.046;2022-09-30T15:37:37;99869.09;;;14.82;67.65
31717;BME280;18301;51.076;17.046;2022-09-30T15:42:56;99874.19;;;14.67;68.27
31717;BME280;18301;51.076;17.046;2022-09-30T15:48:03;99883.25;;;14.58;68.72
31717;BME280;18301;51.076;17.046;2022-09-30T16:03:28;99868.34;;;14.34;70.33
31717;BME280;18301;51.076;17.046;2022-09-30T16:08:31;99867.53;;;14.24;71.02
31717;BME280;18301;51.076;17.046;2022-09-30T16:13:41;99880.72;;;14.09;71.97
31717;BME280;18301;51.076;17.046;2022-09-30T16:18:43;99882.09;;;13.95;72.44
31717;BME280;18301;51.076;17.046;2022-09-30T16:23:45;99898.53;;;13.84;72.70
31717;BME280;18301;51.076;17.046;2022-09-30T16:28:47;99907.38;;;13.67;73.23
31717;BME280;18301;51.076;17.046;2022-09-30T16:33:48;99924.25;;;13.61;73.45
31717;BME280;18301;51.076;17.046;2022-09-30T16:38:50;99914.97;;;13.53;73.40
31717;BME280;18301;51.076;17.046;2022-09-30T16:43:52;99916.28;;;13.49;73.63
31717;BME280;18301;51.076;17.046;2022-09-30T16:48:53;99921.56;;;13.41;73.72
31717;BME280;18301;51.076;17.046;2022-09-30T16:53:55;99922.22;;;13.24;74.52
31717;BME280;18301;51.076;17.046;2022-09-30T16:58:58;99929.38;;;13.05;75.82
31717;BME280;18301;51.076;17.046;2022-09-30T17:04:00;99926.22;;;13.00;75.92
31717;BME280;18301;51.076;17.046;2022-09-30T17:09:02;99924.44;;;12.80;76.89
31717;BME280;18301;51.076;17.046;2022-09-30T17:14:04;99934.41;;;12.70;77.39
31717;BME280;18301;51.076;17.046;2022-09-30T17:19:06;99936.13;;;12.71;77.92
31717;BME280;18301;51.076;17.046;2022-09-30T17:24:08;99941.94;;;12.56;78.39
31717;BME280;18301;51.076;17.046;2022-09-30T17:29:10;99942.47;;;12.50;78.86
31717;BME280;18301;51.076;17.046;2022-09-30T17:34:31;99957.53;;;12.43;79.38
31717;BME280;18301;51.076;17.046;2022-09-30T17:39:33;99957.38;;;12.35;79.79
31717;BME280;18301;51.076;17.046;2022-09-30T17:44:34;99955.94;;;12.40;79.57
31717;BME280;18301;51.076;17.046;2022-09-30T17:49:36;99966.19;;;12.37;79.86
31717;BME280;18301;51.076;17.046;2022-09-30T17:54:38;99950.50;;;12.31;79.44
31717;BME280;18301;51.076;17.046;2022-09-30T17:59:39;99951.84;;;12.15;79.79
31717;BME280;18301;51.076;17.046;2022-09-30T18:04:43;99968.06;;;12.15;79.70
31717;BME280;18301;51.076;17.046;2022-09-30T18:09:46;99983.13;;;12.08;80.09
31717;BME280;18301;51.076;17.046;2022-09-30T18:14:48;99980.22;;;12.00;80.11
31717;BME280;18301;51.076;17.046;2022-09-30T18:19:50;99983.28;;;11.86;80.42
31717;BME280;18301;51.076;17.046;2022-09-30T18:24:52;99978.03;;;11.73;80.75
31717;BME280;18301;51.076;17.046;2022-09-30T18:30:13;99983.72;;;11.70;81.13
31717;BME280;18301;51.076;17.046;2022-09-30T18:35:15;99959.16;;;11.62;81.42
31717;BME280;18301;51.076;17.046;2022-09-30T18:40:22;99978.47;;;11.57;81.76
31717;BME280;18301;51.076;17.046;2022-09-30T18:45:26;99974.09;;;11.45;81.84
31717;BME280;18301;51.076;17.046;2022-09-30T18:50:30;99976.84;;;11.34;83.66
31717;BME280;18301;51.076;17.046;2022-09-30T18:55:35;99972.75;;;11.18;83.02
31717;BME280;18301;51.076;17.046;2022-09-30T19:00:38;99987.34;;;11.16;83.10
31717;BME280;18301;51.076;17.046;2022-09-30T19:05:40;99980.94;;;11.17;83.51
31717;BME280;18301;51.076;17.046;2022-09-30T19:10:42;99975.47;;;11.07;83.97
31717;BME280;18301;51.076;17.046;2022-09-30T19:15:46;99983.06;;;11.02;84.13
31717;BME280;18301;51.076;17.046;2022-09-30T19:20:48;99985.56;;;10.94;84.69
31717;BME280;18301;51.076;17.046;2022-09-30T19:25:53;99973.50;;;11.09;84.59
31717;BME280;18301;51.076;17.046;2022-09-30T19:30:58;99968.09;;;11.09;84.85
31717;BME280;18301;51.076;17.046;2022-09-30T19:36:08;99970.78;;;11.09;85.75
31717;BME280;18301;51.076;17.046;2022-09-30T19:41:16;99965.84;;;11.14;86.30
31717;BME280;18301;51.076;17.046;2022-09-30T19:46:19;99965.59;;;11.17;86.44
31717;BME280;18301;51.076;17.046;2022-09-30T19:51:22;99957.28;;;11.09;86.81
31717;BME280;18301;51.076;17.046;2022-09-30T19:56:24;99960.63;;;11.01;87.54
31717;BME280;18301;51.076;17.046;2022-09-30T20:01:27;99954.75;;;10.96;87.78
31717;BME280;18301;51.076;17.046;2022-09-30T20:06:30;99951.16;;;11.07;87.97
31717;BME280;18301;51.076;17.046;2022-09-30T20:11:35;99955.44;;;11.10;87.82
31717;BME280;18301;51.076;17.046;2022-09-30T20:16:37;99954.19;;;11.14;88.07
31717;BME280;18301;51.076;17.046;2022-09-30T20:21:39;99970.56;;;11.01;87.89
31717;BME280;18301;51.076;17.046;2022-09-30T20:26:45;99979.91;;;10.97;88.09
31717;BME280;18301;51.076;17.046;2022-09-30T20:31:47;99975.72;;;10.93;88.54
31717;BME280;18301;51.076;17.046;2022-09-30T20:36:50;99972.16;;;10.92;88.75
31717;BME280;18301;51.076;17.046;2022-09-30T20:41:52;99969.56;;;11.02;88.67
31717;BME280;18301;51.076;17.046;2022-09-30T20:46:57;99953.16;;;10.94;88.94
31717;BME280;18301;51.076;17.046;2022-09-30T20:51:59;99955.34;;;11.00;89.14
31717;BME280;18301;51.076;17.046;2022-09-30T20:57:04;99967.63;;;10.93;89.51
31717;BME280;18301;51.076;17.046;2022-09-30T21:02:09;99965.19;;;10.90;89.64
31717;BME280;18301;51.076;17.046;2022-09-30T21:07:13;99966.16;;;10.89;89.97
31717;BME280;18301;51.076;17.046;2022-09-30T21:12:14;99956.56;;;10.96;89.51
31717;BME280;18301;51.076;17.046;2022-09-30T21:17:19;99954.63;;;10.98;89.79
31717;BME280;18301;51.076;17.046;2022-09-30T21:22:21;99954.13;;;11.04;89.58
31717;BME280;18301;51.076;17.046;2022-09-30T21:27:22;99961.47;;;11.02;89.72
31717;BME280;18301;51.076;17.046;2022-09-30T21:32:24;99950.41;;;11.05;89.95
31717;BME280;18301;51.076;17.046;2022-09-30T21:37:25;99957.81;;;11.03;89.78
31717;BME280;18301;51.076;17.046;2022-09-30T21:42:27;99946.75;;;11.06;89.43
31717;BME280;18301;51.076;17.046;2022-09-30T21:47:28;99954.38;;;11.01;89.16
31717;BME280;18301;51.076;17.046;2022-09-30T21:52:30;99954.63;;;10.87;89.23
31717;BME280;18301;51.076;17.046;2022-09-30T21:57:33;99938.47;;;10.75;90.76
31717;BME280;18301;51.076;17.046;2022-09-30T22:02:34;99943.13;;;10.73;90.93
31717;BME280;18301;51.076;17.046;2022-09-30T22:07:37;99940.84;;;10.69;90.83
31717;BME280;18301;51.076;17.046;2022-09-30T22:12:39;99948.94;;;10.69;91.27
31717;BME280;18301;51.076;17.046;2022-09-30T22:17:40;99948.28;;;10.65;91.38
31717;BME280;18301;51.076;17.046;2022-09-30T22:22:42;99939.09;;;10.79;91.44
31717;BME280;18301;51.076;17.046;2022-09-30T22:27:43;99934.03;;;10.86;91.50
31717;BME280;18301;51.076;17.046;2022-09-30T22:32:46;99924.69;;;10.90;91.15
31717;BME280;18301;51.076;17.046;2022-09-30T22:38:13;99915.13;;;10.86;90.96
31717;BME280;18301;51.076;17.046;2022-09-30T22:43:15;99941.88;;;10.77;91.04
31717;BME280;18301;51.076;17.046;2022-09-30T22:48:17;99950.72;;;10.79;91.69
31717;BME280;18301;51.076;17.046;2022-09-30T22:53:18;99940.53;;;10.83;91.89
31717;BME280;18301;51.076;17.046;2022-09-30T22:58:21;99958.69;;;10.92;91.10
31717;BME280;18301;51.076;17.046;2022-09-30T23:03:24;99950.22;;;10.86;91.06
31717;BME280;18301;51.076;17.046;2022-09-30T23:08:30;99936.72;;;10.86;91.04
31717;BME280;18301;51.076;17.046;2022-09-30T23:13:33;99947.19;;;10.79;90.73
31717;BME280;18301;51.076;17.046;2022-09-30T23:18:35;99939.59;;;10.73;91.07
31717;BME280;18301;51.076;17.046;2022-09-30T23:23:38;99948.53;;;10.62;91.28
31717;BME280;18301;51.076;17.046;2022-09-30T23:28:40;99946.34;;;10.56;91.60
31717;BME280;18301;51.076;17.046;2022-09-30T23:33:47;99947.81;;;10.49;91.71
31717;BME280;18301;51.076;17.046;2022-09-30T23:38:49;99957.91;;;10.47;92.01
31717;BME280;18301;51.076;17.046;2022-09-30T23:43:51;99961.81;;;10.54;92.59
31717;BME280;18301;51.076;17.046;2022-09-30T23:48:52;99964.63;;;10.64;91.89
31717;BME280;18301;51.076;17.046;2022-09-30T23:53:54;99959.59;;;10.59;91.59
31717;BME280;18301;51.076;17.046;2022-09-30T23:58:56;99963.53;;;10.44;91.70
